AirNav   Everest Fuels
 
 437 users online  

1CO8 Everitt Airport
Parker, Colorado, USA

GOING TO PARKER?


FAA INFORMATION EFFECTIVE 26 JANUARY 2023

Location

FAA Identifier: 1CO8
Lat/Long: 39-31-39.2250N 104-39-23.5300W
39-31.653750N 104-39.392167W
39.5275625,-104.6565361
(estimated)
Elevation: 6295 ft. / 1919 m (estimated)
Variation: 11E (1985)
From city: 7 miles E of PARKER, CO
Time zone: UTC -7 (UTC -6 during Daylight Saving Time)
Zip code: 80138

Airport Operations

Airport use: Private use. Permission required prior to landing
Control tower: no
ARTCC: DENVER CENTER
FSS: DENVER FLIGHT SERVICE STATION
Attendance: CONTINUOUS
Wind indicator: yes
Segmented circle: no

Airport Communications

WX ASOS at APA (9 nm W): PHONE 720-873-2799
WX AWOS-3 at CFO (16 nm N): 119.025 (303-261-9104)

Nearby radio navigation aids

VOR radial/distance  VOR name  Freq  Var
FQFr179/9.9FALCON VORTAC116.3011E
DENr171/17.1DENVER VOR/DME117.9008E
DVVr176/22.1MILE HIGH VORTAC114.7008E
BJCr125/32.1JEFFCO VOR/DME115.4011E
BRKr350/35.0BLACK FOREST VOR/DME112.5008E

Airport Services

Airframe service: NONE
Powerplant service: NONE

Runway Information

Runway 5/23

Dimensions: 2200 x 100 ft. / 671 x 30 m
Surface: turf
RUNWAY 5  RUNWAY 23
Latitude: 39-31.565167N39-31.742333N
Longitude: 104-39.596167W104-39.188167W
Traffic pattern: leftleft
Runway heading: 050 magnetic, 061 true230 magnetic, 241 true

Runway 18/36

Dimensions: 2200 x 50 ft. / 671 x 15 m
Surface: turf
RUNWAY 18  RUNWAY 36
Traffic pattern: leftleft
Runway heading: 169 magnetic, 180 true349 magnetic, 360 true

Airport Ownership and Management from official FAA records

Ownership: Privately-owned
Owner: EVERITT AIRPORT, LLC
128 CORSAIR CIRCLE
PARKER, CO 80138
Phone 303-841-5279
MACK PAGE: PRINCIPAL PARTNER / MANAGING PARTNER
Manager: MACK PAGE
10096 E. BEECHWOOD DRIVE
PARKER, CO 80138
Phone 303-841-5279

Airport Operational Statistics

Aircraft based on the field: 36
Single engine airplanes: 36
    

Additional Remarks

LIMITED AIRFRAME AND POWERPLANT REPAIRS ON ARPT.
FOR CD CTC DENVER APCH AT 303-342-1916.

Instrument Procedures

There are no published instrument procedures at 1CO8.

Some nearby airports with instrument procedures:

KAPA - Centennial Airport (9 nm W)
KBKF - Buckley Space Force Base (11 nm NW)
KCFO - Colorado Air and Space Port Airport (16 nm N)
KDEN - Denver International Airport (20 nm N)
KBJC - Rocky Mountain Metro Airport (31 nm NW)
 
Loc | Ops | Rwys | IFR | FBO | Links
Com | Nav | Svcs | Stats | Notes

AirBoss

 
Area around 1CO8 (Everitt Airport)
 
Road maps at: MapQuest Bing Google
 
Aerial photo
WARNING: Photo may not be current or correct
Aerial photo of 1CO8 (Everitt Airport)
Photo taken 16-Nov-2006

Do you have a better or more recent aerial photo of Everitt Airport that you would like to share? If so, please send us your photo.

 
Sectional chart

 
Airport distance calculator
Flying to Everitt Airport? Find the distance to fly.

From to 1CO8

Sunrise and sunset
Times for 04-Feb-2023
 Local
(UTC-7)
 Zulu
(UTC)
Morning civil twilight06:3613:36
Sunrise07:0414:04
Sunset17:2100:21
Evening civil twilight17:4900:49

Current date and time
Zulu (UTC)  04-Feb-2023 10:35:51
Local (UTC-7)  04-Feb-2023 03:35:51
 
METAR
KAPA 
9nm W 
040953Z 24008KT 10SM FEW120 BKN200 04/M12 A3003 RMK AO2 SLP156 T00391122
KBKF 
12nm N 
040958Z 20006KT 10SM FEW130 BKN220 03/M13 A3002 RMK AO2A SLP144 T00281127
KCFO 
16nm N 
041015Z AUTO 22013KT 10SM CLR 04/M11 A3003 RMK AO2 T00391111
KDEN 
18nm N 
040953Z 23007KT 10SM BKN220 03/M09 A3002 RMK AO2 SLP158 T00281094
KMNH 
19nm S 
041015Z AUTO 24007KT 10SM CLR M02/M16 A3008 RMK AO2
TAF
KAPA 
9nm W 
040534Z 0406/0506 20010KT P6SM SCT100 BKN200 FM041700 25009KT P6SM FEW100 BKN200 FM050200 19010KT P6SM FEW100 BKN200
KBKF 
12nm N 
040904Z 0409/0515 20006KT 9999 SKC QNH3004INS BECMG 0414/0415 VRB06KT 9999 SCT120 BKN180 530054 QNH3003INS TX03/0422Z TNM03/0409Z
KDEN 
18nm N 
040911Z 0409/0512 21011KT P6SM SCT100 BKN200 FM041600 25009KT P6SM FEW100 BKN200 FM050200 20010KT P6SM FEW100 BKN200
NOTAMs
Click for the latest NOTAMs
NOTAMs are issued by the DoD/FAA and will open in a separate window not controlled by AirNav.

 

 
 

Would you like to see your business listed on this page?

 If your business provides an interesting product or service to pilots, flight crews, aircraft, or users of the Everitt Airport, you should consider listing it here.  To start the listing process, click on the button below
 
Add a business
 

Other Pages about Everitt Airport

Update a link
 
Copyright © AirNav, LLC. All rights reserved. Privacy Policy  Contact